Time;durP1;ratioP1;P1;durP2;ratioP2;P2;SDS_P1;SDS_P2;PMS_P1;PMS_P2;Temp;Humidity;BMP_temperature;BMP_pressure;BME280_temperature;BME280_humidity;BME280_pressure;Samples;Min_cycle;Max_cycle;Signal;HPM_P1;HPM_P2
2023/04/28 00:00:20;;;;;;;;;3.00;3.00;;;;;18.14;100.00;100926.38;5039521;28;45423;-73
2023/04/28 00:02:47;;;;;;;;;5.00;3.00;;;;;18.13;100.00;100925.50;5058616;28;45530;-73
2023/04/28 00:05:13;;;;;;;;;3.00;3.00;;;;;18.13;100.00;100932.63;5058087;28;45905;-72
2023/04/28 00:07:38;;;;;;;;;4.00;2.00;;;;;18.12;100.00;100917.53;5057999;28;45457;-72
2023/04/28 00:10:04;;;;;;;;;7.00;3.33;;;;;18.13;100.00;100914.81;5057553;28;61985;-74
2023/04/28 00:12:29;;;;;;;;;5.67;3.00;;;;;18.13;100.00;100920.16;5062079;28;45437;-73
2023/04/28 00:14:54;;;;;;;;;3.00;3.00;;;;;18.09;100.00;100913.09;5058189;28;46103;-74
2023/04/28 00:17:20;;;;;;;;;3.00;3.00;;;;;18.11;100.00;100923.75;5057691;28;45339;-73
2023/04/28 00:19:45;;;;;;;;;3.00;3.00;;;;;18.09;100.00;100921.13;5057421;28;58587;-74
2023/04/28 00:22:10;;;;;;;;;5.00;3.00;;;;;18.08;100.00;100923.81;5040154;28;45681;-73
2023/04/28 00:24:36;;;;;;;;;3.67;3.67;;;;;18.09;100.00;100920.22;5056926;28;68605;-73
2023/04/28 00:27:02;;;;;;;;;4.33;3.67;;;;;18.10;100.00;100932.69;5039470;28;45257;-74
2023/04/28 00:29:28;;;;;;;;;5.00;4.00;;;;;18.10;100.00;100925.53;5057062;28;45359;-73
2023/04/28 00:31:53;;;;;;;;;2.00;2.00;;;;;18.05;100.00;100911.38;5040675;28;45459;-72
2023/04/28 00:34:18;;;;;;;;;3.00;3.00;;;;;18.08;100.00;100919.34;5056668;28;67774;-74
2023/04/28 00:36:44;;;;;;;;;4.67;2.67;;;;;18.06;100.00;100932.75;5056465;28;60307;-72
2023/04/28 00:39:09;;;;;;;;;3.00;3.00;;;;;18.06;100.00;100930.09;5058182;28;45680;-73
2023/04/28 00:41:34;;;;;;;;;3.67;3.67;;;;;18.05;100.00;100916.72;5056898;28;54357;-72
2023/04/28 00:44:00;;;;;;;;;2.67;2.67;;;;;18.03;100.00;100908.75;5058128;28;45736;-73
2023/04/28 00:46:29;;;;;;;;;2.33;2.33;;;;;18.01;100.00;100904.34;5056997;28;45285;-73
2023/04/28 00:48:56;;;;;;;;;5.33;4.67;;;;;17.95;100.00;100910.69;5040065;28;45474;-75
2023/04/28 00:51:21;;;;;;;;;3.00;3.00;;;;;17.93;100.00;100908.94;5039638;28;45367;-73
2023/04/28 00:53:47;;;;;;;;;2.33;2.00;;;;;17.91;100.00;100914.31;5056727;28;66304;-73
2023/04/28 00:56:12;;;;;;;;;3.00;3.00;;;;;17.85;100.00;100906.41;5056482;28;63548;-73
2023/04/28 00:58:38;;;;;;;;;5.00;3.67;;;;;17.85;100.00;100916.22;5039755;28;45627;-72
2023/04/28 01:01:08;;;;;;;;;2.33;2.33;;;;;17.80;100.00;100902.94;5057385;28;45490;-72
2023/04/28 01:03:36;;;;;;;;;3.33;3.33;;;;;17.79;100.00;100911.88;5038428;28;46911;-73
2023/04/28 01:06:03;;;;;;;;;2.00;2.00;;;;;17.79;100.00;100915.44;5039154;28;45382;-74
2023/04/28 01:08:33;;;;;;;;;3.67;3.00;;;;;17.76;100.00;100914.59;5039221;28;45433;-73
2023/04/28 01:10:58;;;;;;;;;2.00;2.00;;;;;17.79;100.00;100915.44;5038621;28;45360;-72
2023/04/28 01:13:24;;;;;;;;;3.00;3.00;;;;;17.80;100.00;100914.50;5059234;28;56511;-73
2023/04/28 01:15:50;;;;;;;;;2.00;2.00;;;;;17.81;100.00;100907.38;5057194;28;45414;-72
2023/04/28 01:18:15;;;;;;;;;1.67;1.67;;;;;17.82;100.00;100909.13;5038595;28;45534;-73
2023/04/28 01:20:41;;;;;;;;;2.00;2.00;;;;;17.82;100.00;100902.91;5057265;28;45320;-73
2023/04/28 01:23:14;;;;;;;;;2.00;2.00;;;;;17.83;100.00;100910.88;5038795;28;45673;-74
2023/04/28 01:25:40;;;;;;;;;2.00;2.00;;;;;17.80;100.00;100911.84;5038594;28;45387;-72
2023/04/28 01:28:05;;;;;;;;;2.00;2.00;;;;;17.83;100.00;100916.22;5057609;28;45452;-74
2023/04/28 01:30:30;;;;;;;;;1.00;1.00;;;;;17.85;100.00;100916.22;5057345;28;45396;-74
2023/04/28 01:32:56;;;;;;;;;2.00;2.00;;;;;17.83;100.00;100912.69;5056740;28;47302;-73
2023/04/28 01:35:21;;;;;;;;;2.00;2.00;;;;;17.83;100.00;100912.69;5170758;22;45519;-74
2023/04/28 01:37:46;;;;;;;;;1.00;1.00;;;;;17.77;100.00;100903.00;5040578;28;63944;-73
2023/04/28 01:40:12;;;;;;;;;2.67;2.67;;;;;17.74;100.00;100911.06;5037649;28;59782;-73
2023/04/28 01:42:37;;;;;;;;;2.00;2.00;;;;;17.72;100.00;100904.81;5036473;28;46317;-74
2023/04/28 01:45:04;;;;;;;;;3.00;2.00;;;;;17.72;100.00;100908.41;5020205;28;48482;-73
2023/04/28 01:47:29;;;;;;;;;2.00;2.00;;;;;17.68;100.00;100901.31;5037211;28;45542;-72
2023/04/28 01:49:55;;;;;;;;;3.00;3.00;;;;;17.65;100.00;100904.06;5037253;28;45462;-73
2023/04/28 01:52:21;;;;;;;;;3.33;2.00;;;;;17.66;100.00;100902.25;5045687;28;66990;-73
2023/04/28 01:54:47;;;;;;;;;2.00;2.00;;;;;17.61;100.00;100899.66;5036897;28;45416;-72
2023/04/28 01:57:12;;;;;;;;;2.00;2.00;;;;;17.63;100.00;100896.97;5036387;28;55625;-72
2023/04/28 01:59:37;;;;;;;;;3.00;3.00;;;;;17.61;100.00;100896.13;5039346;28;59818;-73
2023/04/28 02:02:03;;;;;;;;;1.00;1.00;;;;;17.61;100.00;100897.00;5047221;28;45823;-72
2023/04/28 02:04:28;;;;;;;;;2.00;2.00;;;;;17.60;100.00;100899.69;5018665;28;45636;-72
2023/04/28 02:06:53;;;;;;;;;4.67;3.00;;;;;17.60;100.00;100903.25;5006952;28;65189;-74
2023/04/28 02:09:19;;;;;;;;;2.00;2.00;;;;;17.58;100.00;100897.06;5036968;28;57150;-74
2023/04/28 02:11:44;;;;;;;;;3.67;3.00;;;;;17.57;100.00;100897.94;5038229;28;45684;-72
2023/04/28 02:14:10;;;;;;;;;2.33;2.33;;;;;17.57;100.00;100905.97;5033670;28;45497;-73
2023/04/28 02:16:35;;;;;;;;;2.00;2.00;;;;;17.57;100.00;100903.28;5019877;28;45857;-73
2023/04/28 02:19:00;;;;;;;;;2.00;2.00;;;;;17.55;100.00;100900.66;5046453;28;45399;-72
2023/04/28 02:21:26;;;;;;;;;1.33;1.33;;;;;17.55;100.00;100905.13;5028459;28;47410;-72
2023/04/28 02:23:52;;;;;;;;;1.00;1.00;;;;;17.53;100.00;100901.59;5036434;28;45841;-73
2023/04/28 02:26:17;;;;;;;;;2.00;2.00;;;;;17.52;100.00;100902.47;5038904;28;45475;-74
2023/04/28 02:28:42;;;;;;;;;2.33;1.00;;;;;17.52;100.00;100911.41;5017319;28;62137;-73
2023/04/28 02:31:09;;;;;;;;;2.00;2.00;;;;;17.50;100.00;100915.88;5019636;28;45757;-74
2023/04/28 02:33:35;;;;;;;;;2.00;2.00;;;;;17.49;100.00;100913.22;5017782;28;45622;-74
2023/04/28 02:36:02;;;;;;;;;2.00;2.00;;;;;17.50;100.00;100914.97;5036719;28;45309;-73
2023/04/28 02:38:28;;;;;;;;;1.00;1.00;;;;;17.48;100.00;100903.47;5036680;28;45578;-74
2023/04/28 02:40:58;;;;;;;;;4.00;2.00;;;;;17.48;100.00;100914.16;5016843;28;46817;-74
2023/04/28 02:43:23;;;;;;;;;2.00;2.00;;;;;17.49;100.00;100911.44;5037488;28;45458;-73
2023/04/28 02:45:49;;;;;;;;;1.00;1.00;;;;;17.51;100.00;100911.41;5037398;28;45517;-74
2023/04/28 02:48:14;;;;;;;;;2.00;2.00;;;;;17.48;100.00;100907.00;5035341;28;60283;-75
2023/04/28 02:50:40;;;;;;;;;2.00;2.00;;;;;17.50;100.00;100912.31;5035180;28;46821;-74
2023/04/28 02:53:05;;;;;;;;;1.00;1.00;;;;;17.46;100.00;100908.81;5035387;28;58758;-75
2023/04/28 02:55:31;;;;;;;;;2.00;1.00;;;;;17.44;100.00;100907.06;5039946;28;60102;-73
2023/04/28 02:57:56;;;;;;;;;1.33;1.33;;;;;17.47;100.00;100918.59;5043342;28;46069;-74
2023/04/28 03:00:21;;;;;;;;;2.67;1.33;;;;;17.45;100.00;100925.72;5035764;28;64941;-75
2023/04/28 03:02:47;;;;;;;;;1.00;1.00;;;;;17.42;100.00;100911.56;5039699;28;65090;-75
2023/04/28 03:05:12;;;;;;;;;0.00;0.00;;;;;17.42;100.00;100909.78;5038027;28;45399;-74
2023/04/28 03:07:37;;;;;;;;;2.00;1.00;;;;;17.45;100.00;100909.72;5042774;28;57222;-74
2023/04/28 03:10:03;;;;;;;;;1.00;1.00;;;;;17.46;100.00;100903.47;5035179;28;67330;-74
2023/04/28 03:12:28;;;;;;;;;1.00;1.00;;;;;17.46;100.00;100908.81;5025013;28;45524;-74
2023/04/28 03:14:53;;;;;;;;;0.00;0.00;;;;;17.43;100.00;100903.53;5034833;28;61889;-73
2023/04/28 03:17:19;;;;;;;;;1.00;1.00;;;;;17.47;100.00;100907.91;5035174;28;60584;-75
2023/04/28 03:19:44;;;;;;;;;1.00;1.00;;;;;17.45;100.00;100904.38;5035723;28;46327;-74
2023/04/28 03:22:10;;;;;;;;;1.00;1.00;;;;;17.47;100.00;100907.91;5015586;28;61560;-73
2023/04/28 03:24:35;;;;;;;;;0.67;0.00;;;;;17.47;100.00;100899.00;5040746;28;49689;-74
2023/04/28 03:27:02;;;;;;;;;1.00;1.00;;;;;17.47;100.00;100904.34;5035881;28;45735;-74
2023/04/28 03:29:27;;;;;;;;;1.00;1.00;;;;;17.49;100.00;100905.22;5006130;28;47978;-75
2023/04/28 03:31:53;;;;;;;;;2.67;1.00;;;;;17.52;100.00;100913.16;5038549;28;45466;-73
2023/04/28 03:34:18;;;;;;;;;1.00;1.00;;;;;17.50;100.00;100909.66;5027711;28;64473;-73
2023/04/28 03:36:44;;;;;;;;;0.00;0.00;;;;;17.52;100.00;100908.72;5018282;28;45558;-74
2023/04/28 03:39:09;;;;;;;;;0.00;0.00;;;;;17.50;100.00;100891.84;5042359;28;58724;-75
2023/04/28 03:41:34;;;;;;;;;0.00;0.00;;;;;17.49;100.00;100891.88;5044891;28;66141;-75
2023/04/28 03:43:59;;;;;;;;;1.33;1.00;;;;;17.50;100.00;100899.84;5038956;28;45574;-74
2023/04/28 03:46:25;;;;;;;;;0.00;0.00;;;;;17.48;100.00;100898.13;5031063;28;57838;-75
2023/04/28 03:48:50;;;;;;;;;1.00;1.00;;;;;17.46;100.00;100900.78;5034071;28;66620;-73
2023/04/28 03:51:16;;;;;;;;;1.00;1.00;;;;;17.46;100.00;100903.47;5005906;28;46096;-74
2023/04/28 03:53:41;;;;;;;;;0.00;0.00;;;;;17.48;100.00;100903.47;5036859;28;46729;-76
2023/04/28 03:56:06;;;;;;;;;0.67;0.67;;;;;17.47;100.00;100902.59;5042113;28;59787;-74
2023/04/28 03:58:32;;;;;;;;;0.00;0.00;;;;;17.49;100.00;100900.75;5045706;28;67752;-76
2023/04/28 04:00:59;;;;;;;;;0.00;0.00;;;;;17.50;100.00;100904.31;5039502;28;45486;-76
2023/04/28 04:03:25;;;;;;;;;0.00;0.00;;;;;17.48;100.00;100903.47;5038044;28;45197;-75
2023/04/28 04:05:52;;;;;;;;;0.00;0.00;;;;;17.46;100.00;100903.47;5038868;28;46267;-74
2023/04/28 04:08:18;;;;;;;;;0.00;0.00;;;;;17.48;100.00;100903.47;5041549;28;46591;-74
2023/04/28 04:10:43;;;;;;;;;1.67;1.00;;;;;17.48;100.00;100900.78;5022809;28;45421;-74
2023/04/28 04:13:08;;;;;;;;;0.00;0.00;;;;;17.45;100.00;100892.81;5040386;28;45328;-73
2023/04/28 04:15:34;;;;;;;;;0.00;0.00;;;;;17.46;100.00;100900.78;5023085;28;51208;-73
2023/04/28 04:17:59;;;;;;;;;1.00;0.67;;;;;17.47;100.00;100901.66;5017236;28;45678;-75
2023/04/28 04:20:25;;;;;;;;;0.67;0.67;;;;;17.48;100.00;100907.00;5037893;28;45486;-73
2023/04/28 04:22:50;;;;;;;;;2.00;0.00;;;;;17.50;100.00;100914.97;5038599;28;45475;-73
2023/04/28 04:25:15;;;;;;;;;0.00;0.00;;;;;17.48;100.00;100909.69;5021961;28;53124;-73
2023/04/28 04:27:41;;;;;;;;;0.00;0.00;;;;;17.49;100.00;100918.56;5039305;28;59734;-76
2023/04/28 04:30:07;;;;;;;;;0.67;0.67;;;;;17.49;100.00;100916.78;5016507;28;50935;-75
2023/04/28 04:32:32;;;;;;;;;0.00;0.00;;;;;17.50;100.00;100921.19;5037051;28;45532;-76
2023/04/28 04:34:57;;;;;;;;;0.33;0.00;;;;;17.48;100.00;100922.16;5031649;28;45452;-74
2023/04/28 04:37:23;;;;;;;;;0.00;0.00;;;;;17.50;100.00;100920.31;5038954;28;67644;-74
2023/04/28 04:39:48;;;;;;;;;0.00;0.00;;;;;17.50;100.00;100923.00;5035288;28;45523;-73
2023/04/28 04:42:13;;;;;;;;;0.33;0.33;;;;;17.49;100.00;100918.56;5037453;28;58875;-73
2023/04/28 04:44:39;;;;;;;;;0.00;0.00;;;;;17.49;100.00;100913.22;5042672;28;58191;-74
2023/04/28 04:47:04;;;;;;;;;0.00;0.00;;;;;17.50;100.00;100921.19;5041494;28;69584;-73
2023/04/28 04:49:30;;;;;;;;;0.00;0.00;;;;;17.52;100.00;100918.50;5038275;28;45547;-74
2023/04/28 04:51:55;;;;;;;;;0.00;0.00;;;;;17.51;100.00;100925.63;5039029;28;45510;-73
2023/04/28 04:54:21;;;;;;;;;0.00;0.00;;;;;17.53;100.00;100930.97;5021205;28;45578;-75
2023/04/28 04:56:46;;;;;;;;;0.00;0.00;;;;;17.53;100.00;100936.31;5021132;28;67904;-74
2023/04/28 04:59:12;;;;;;;;;1.00;1.00;;;;;17.52;100.00;100934.53;5038371;28;61774;-74
2023/04/28 05:01:37;;;;;;;;;0.00;0.00;;;;;17.51;100.00;100938.97;5037791;28;45666;-74
2023/04/28 05:04:02;;;;;;;;;0.00;0.00;;;;;17.50;100.00;100939.88;5034557;28;59536;-74
2023/04/28 05:06:28;;;;;;;;;0.00;0.00;;;;;17.50;100.00;100939.88;5039172;28;45737;-75
2023/04/28 05:08:55;;;;;;;;;0.00;0.00;;;;;17.52;100.00;100943.44;5017569;28;45346;-73
2023/04/28 05:11:20;;;;;;;;;0.00;0.00;;;;;17.52;100.00;100937.19;5038662;28;45388;-74
2023/04/28 05:13:46;;;;;;;;;0.00;0.00;;;;;17.53;100.00;100936.31;5054247;28;51478;-73
2023/04/28 05:16:11;;;;;;;;;2.00;1.00;;;;;17.55;100.00;100937.16;5020247;28;47400;-73
2023/04/28 05:18:36;;;;;;;;;0.00;0.00;;;;;17.54;100.00;100933.59;5043657;28;45380;-76
2023/04/28 05:21:02;;;;;;;;;1.00;1.00;;;;;17.54;100.00;100933.59;5018220;28;54680;-74
2023/04/28 05:23:27;;;;;;;;;0.00;0.00;;;;;17.55;100.00;100930.03;5044174;28;45407;-75
2023/04/28 05:25:52;;;;;;;;;0.67;0.00;;;;;17.55;100.00;100931.81;5038672;28;68036;-74
2023/04/28 05:28:19;;;;;;;;;0.00;0.00;;;;;17.55;100.00;100938.03;5038078;28;47756;-73
2023/04/28 05:30:45;;;;;;;;;0.00;0.00;;;;;17.60;100.00;100937.09;5041426;28;45459;-73
2023/04/28 05:33:10;;;;;;;;;0.00;0.00;;;;;17.59;100.00;100946.00;5037067;28;45261;-76
2023/04/28 05:35:36;;;;;;;;;0.00;0.00;;;;;17.59;100.00;100940.66;5014248;28;46524;-73
2023/04/28 05:38:01;;;;;;;;;0.00;0.00;;;;;17.59;100.00;100935.31;5003578;28;45334;-75
2023/04/28 05:40:27;;;;;;;;;0.00;0.00;;;;;17.58;100.00;100937.13;5024171;28;62741;-73
2023/04/28 05:42:53;;;;;;;;;0.00;0.00;;;;;17.58;100.00;100938.88;5039450;28;45434;-73
2023/04/28 05:45:18;;;;;;;;;0.67;0.67;;;;;17.56;100.00;100949.59;5036713;28;66009;-75
2023/04/28 05:47:43;;;;;;;;;3.00;0.00;;;;;17.57;100.00;100938.00;5016418;28;64103;-75
2023/04/28 05:50:09;;;;;;;;;0.33;0.33;;;;;17.59;100.00;100948.69;5046018;28;45593;-74
2023/04/28 05:52:34;;;;;;;;;0.00;0.00;;;;;17.59;100.00;100938.88;5038194;28;45651;-73
2023/04/28 05:55:00;;;;;;;;;0.00;0.00;;;;;17.62;100.00;100938.81;5037710;28;62496;-75
2023/04/28 05:57:25;;;;;;;;;0.00;0.00;;;;;17.64;100.00;100938.81;5019186;28;45312;-73
2023/04/28 05:59:50;;;;;;;;;0.00;0.00;;;;;17.67;100.00;100947.63;5037262;28;45477;-73
2023/04/28 06:02:16;;;;;;;;;0.00;0.00;;;;;17.69;100.00;100944.97;5036163;28;59084;-74
2023/04/28 06:04:43;;;;;;;;;1.00;1.00;;;;;17.70;100.00;100947.59;5037640;28;49264;-73
2023/04/28 06:07:08;;;;;;;;;0.00;0.00;;;;;17.71;100.00;100952.03;5043398;28;45269;-74
2023/04/28 06:09:34;;;;;;;;;0.00;0.00;;;;;17.66;100.00;100943.19;5017092;28;45532;-74
2023/04/28 06:11:59;;;;;;;;;1.00;1.00;;;;;17.74;100.00;100954.69;5035322;28;46103;-74
2023/04/28 06:14:24;;;;;;;;;1.00;1.00;;;;;17.76;100.00;100958.19;5019567;28;46591;-74
2023/04/28 06:16:50;;;;;;;;;0.00;0.00;;;;;17.76;100.00;100955.53;5027380;28;45416;-73
2023/04/28 06:19:17;;;;;;;;;0.00;0.00;;;;;17.74;100.00;100957.34;5040564;28;45608;-74
2023/04/28 06:21:43;;;;;;;;;1.33;1.00;;;;;17.77;100.00;100953.75;5017375;28;45603;-73
2023/04/28 06:24:09;;;;;;;;;0.00;0.00;;;;;17.80;100.00;100967.06;5018725;28;46128;-74
2023/04/28 06:26:34;;;;;;;;;1.00;1.00;;;;;17.83;100.00;100958.09;5031897;28;51286;-74
2023/04/28 06:28:59;;;;;;;;;2.00;0.67;;;;;17.85;100.00;100953.63;5029880;28;60092;-73
2023/04/28 06:31:25;;;;;;;;;2.00;1.00;;;;;17.88;100.00;100957.09;5018270;28;45661;-74
2023/04/28 06:33:50;;;;;;;;;1.00;0.00;;;;;17.90;100.00;100955.31;5028299;28;47293;-73
2023/04/28 06:36:16;;;;;;;;;0.33;0.33;;;;;17.90;100.00;100951.75;5015818;28;45582;-74
2023/04/28 06:38:43;;;;;;;;;1.00;1.00;;;;;17.92;100.00;100947.25;5043061;28;45488;-75
2023/04/28 06:41:09;;;;;;;;;2.00;1.00;;;;;17.92;100.00;100956.16;5039929;28;45601;-75
2023/04/28 06:43:34;;;;;;;;;0.33;0.33;;;;;17.92;100.00;100960.63;5016301;28;47650;-76
2023/04/28 06:46:00;;;;;;;;;1.00;1.00;;;;;17.92;100.00;100964.16;5009396;28;60195;-75
2023/04/28 06:48:25;;;;;;;;;1.00;1.00;;;;;17.90;100.00;100968.66;5014189;28;45211;-74
2023/04/28 06:50:50;;;;;;;;;0.00;0.00;;;;;17.87;100.00;100970.50;5021952;28;46133;-74
2023/04/28 06:53:16;;;;;;;;;1.00;1.00;;;;;17.86;100.00;100971.41;5015751;28;45472;-74
2023/04/28 06:55:41;;;;;;;;;1.00;1.00;;;;;17.80;100.00;100973.28;5041285;28;45448;-74
2023/04/28 06:58:07;;;;;;;;;0.67;0.67;;;;;17.77;100.00;100975.09;5026990;28;60903;-75
2023/04/28 07:00:33;;;;;;;;;2.00;1.00;;;;;17.76;100.00;100979.56;5030412;28;45507;-74
2023/04/28 07:02:58;;;;;;;;;0.33;0.33;;;;;17.79;100.00;100978.66;5034588;28;46813;-74
2023/04/28 07:05:23;;;;;;;;;2.67;1.00;;;;;17.84;100.00;100982.09;5032919;28;45458;-74
2023/04/28 07:07:49;;;;;;;;;1.33;1.33;;;;;17.90;100.00;100979.34;5010346;28;45486;-74
2023/04/28 07:10:15;;;;;;;;;1.00;1.00;;;;;17.95;100.00;100984.59;5029521;28;45983;-75
2023/04/28 07:12:40;;;;;;;;;1.00;1.00;;;;;17.97;100.00;100973.00;5031637;28;46405;-75
2023/04/28 07:15:06;;;;;;;;;1.00;1.00;;;;;18.02;100.00;100989.81;5041160;28;62472;-75
2023/04/28 07:17:32;;;;;;;;;5.00;1.33;;;;;18.08;100.00;100991.50;5034154;28;45480;-75
2023/04/28 07:19:57;;;;;;;;;3.67;1.00;;;;;18.12;100.00;100990.56;5031688;28;45580;-76
2023/04/28 07:22:23;;;;;;;;;1.33;0.67;;;;;18.17;100.00;100988.69;5030860;28;46837;-76
2023/04/28 07:24:48;;;;;;;;;1.00;1.00;;;;;18.24;100.00;100994.78;5034049;28;45535;-74
2023/04/28 07:27:13;;;;;;;;;1.00;1.00;;;;;18.33;100.00;100987.50;5019779;28;45455;-75
2023/04/28 07:29:39;;;;;;;;;1.00;1.00;;;;;18.38;100.00;100984.75;5036077;28;55543;-75
2023/04/28 07:32:07;;;;;;;;;2.33;1.00;;;;;18.46;100.00;100997.94;5025303;28;67035;-77
2023/04/28 07:34:32;;;;;;;;;1.00;1.00;;;;;18.48;100.00;101001.47;5019638;28;45552;-76
2023/04/28 07:36:58;;;;;;;;;1.00;1.00;;;;;18.50;100.00;100994.31;5018147;28;47214;-77
2023/04/28 07:39:23;;;;;;;;;1.67;1.00;;;;;18.55;100.00;100997.78;5032746;28;45317;-77
2023/04/28 07:41:49;;;;;;;;;1.00;1.00;;;;;18.64;100.00;100996.69;5018111;28;46773;-76
2023/04/28 07:44:14;;;;;;;;;0.00;0.00;;;;;18.66;100.00;100994.91;5032784;28;45615;-77
2023/04/28 07:46:40;;;;;;;;;1.67;0.00;;;;;18.67;100.00;101008.22;5014585;28;62684;-76
2023/04/28 07:49:05;;;;;;;;;0.33;0.33;;;;;18.67;100.00;100994.84;5017378;28;45305;-77
2023/04/28 07:51:30;;;;;;;;;1.00;1.00;;;;;18.68;100.00;101002.00;5012863;28;48641;-77
2023/04/28 07:53:56;;;;;;;;;1.00;1.00;;;;;18.72;100.00;101003.72;5039067;28;66504;-76
2023/04/28 07:56:22;;;;;;;;;1.33;1.33;;;;;18.78;100.00;101002.69;5026858;28;45557;-76
2023/04/28 07:58:47;;;;;;;;;1.00;1.00;;;;;18.81;100.00;101005.34;5020938;28;45377;-76
2023/04/28 08:01:12;;;;;;;;;1.67;0.33;;;;;18.83;100.00;101009.72;5025738;28;55671;-76
2023/04/28 08:03:38;;;;;;;;;0.33;0.33;;;;;18.86;100.00;101013.28;5029518;28;66395;-76
2023/04/28 08:06:03;;;;;;;;;0.33;0.33;;;;;18.83;100.00;101014.19;5018158;28;45283;-76
2023/04/28 08:08:29;;;;;;;;;1.33;0.33;;;;;18.79;100.00;101007.13;5040568;28;48237;-77
2023/04/28 08:10:54;;;;;;;;;1.00;1.00;;;;;18.76;100.00;101005.41;4996367;28;45789;-76
2023/04/28 08:13:20;;;;;;;;;0.33;0.33;;;;;18.75;100.00;101008.09;5034153;28;45157;-76
2023/04/28 08:15:47;;;;;;;;;1.00;1.00;;;;;18.72;100.00;100997.47;5013472;28;47053;-75
2023/04/28 08:18:12;;;;;;;;;0.33;0.33;;;;;18.73;100.00;101007.25;5036883;28;45460;-76
2023/04/28 08:20:37;;;;;;;;;0.00;0.00;;;;;18.73;100.00;101013.50;5027891;28;46822;-75
2023/04/28 08:23:03;;;;;;;;;0.33;0.33;;;;;18.73;100.00;101017.97;5029707;28;53841;-76
2023/04/28 08:25:28;;;;;;;;;1.00;1.00;;;;;18.71;100.00;101015.31;5015339;28;45611;-76
2023/04/28 08:27:54;;;;;;;;;1.33;1.33;;;;;18.71;100.00;101019.81;5037581;28;45622;-75
2023/04/28 08:30:20;;;;;;;;;1.00;1.00;;;;;18.74;100.00;101027.75;5032485;27;46535;-75
2023/04/28 08:32:45;;;;;;;;;0.00;0.00;;;;;18.83;100.00;101023.09;5031479;28;45652;-77
2023/04/28 08:35:11;;;;;;;;;0.00;0.00;;;;;18.91;100.00;101017.63;5037053;28;59852;-83
2023/04/28 08:37:37;;;;;;;;;0.33;0.33;;;;;18.98;100.00;101016.56;5019935;28;45514;-74
2023/04/28 08:40:08;;;;;;;;;1.00;1.00;;;;;19.06;100.00;101016.38;5037741;28;47137;-76
2023/04/28 08:42:34;;;;;;;;;0.33;0.00;;;;;19.14;100.00;101014.44;5041488;28;45561;-78
2023/04/28 08:45:00;;;;;;;;;0.00;0.00;;;;;19.18;100.00;101010.78;5044613;28;45505;-77
2023/04/28 08:47:32;;;;;;;;;1.33;0.00;;;;;19.20;100.00;101021.47;5003509;28;45397;-77
2023/04/28 08:50:03;;;;;;;;;0.67;0.33;;;;;19.24;100.00;101020.50;5024090;28;45458;-77
2023/04/28 08:52:29;;;;;;;;;0.33;0.33;;;;;19.29;100.00;101016.78;5042607;28;45527;-76
2023/04/28 08:54:55;;;;;;;;;1.67;0.00;;;;;19.31;100.00;101022.97;5003595;28;45528;-77
2023/04/28 08:57:21;;;;;;;;;1.67;0.33;;;;;19.36;100.00;101020.22;5012367;28;45605;-81
2023/04/28 08:59:46;;;;;;;;;0.67;0.67;;;;;19.43;100.00;101024.50;5018847;28;62986;-83
2023/04/28 09:02:12;;;;;;;;;1.67;0.33;;;;;19.55;100.00;101032.28;5022311;28;60598;-82
2023/04/28 09:04:37;;;;;;;;;0.00;0.00;;;;;19.66;100.00;101036.56;5026368;28;46995;-78
2023/04/28 09:07:02;;;;;;;;;0.67;0.00;;;;;19.73;100.00;101036.34;5036795;28;45428;-77
2023/04/28 09:09:29;;;;;;;;;2.00;1.00;;;;;19.83;100.00;101037.03;5042858;28;62020;-80
2023/04/28 09:12:03;;;;;;;;;0.67;0.00;;;;;19.84;100.00;101030.75;5041908;28;45444;-82
2023/04/28 09:14:31;;;;;;;;;0.00;0.00;;;;;19.84;100.00;101036.97;5043986;28;45560;-81
2023/04/28 09:16:57;;;;;;;;;1.00;1.00;;;;;19.81;100.00;101031.69;5023850;28;45480;-76
2023/04/28 09:19:22;;;;;;;;;0.33;0.33;;;;;19.79;100.00;101024.59;5016334;28;46056;-75
2023/04/28 09:21:53;;;;;;;;;0.33;0.33;;;;;19.85;100.00;101032.50;5034383;28;45459;-76
2023/04/28 09:24:32;;;;;;;;;0.67;0.67;;;;;19.93;100.00;101037.69;5024805;28;45405;-76
2023/04/28 09:27:01;;;;;;;;;1.67;1.00;;;;;19.95;100.00;101027.81;5022085;28;45751;-76
2023/04/28 09:29:27;;;;;;;;;0.67;0.67;;;;;19.97;100.00;101032.19;5033305;28;45794;-76
2023/04/28 09:31:53;;;;;;;;;0.00;0.00;;;;;20.00;100.00;101048.22;5026488;28;45769;-75
2023/04/28 09:34:20;;;;;;;;;1.00;0.67;;;;;20.01;100.00;101041.03;5032961;28;45833;-74
2023/04/28 09:36:45;;;;;;;;;0.67;0.67;;;;;19.95;100.00;101039.41;5033225;28;45661;-76
2023/04/28 09:39:11;;;;;;;;;0.00;0.00;;;;;19.96;100.00;101045.63;5031521;28;69865;-75
2023/04/28 09:41:42;;;;;;;;;0.33;0.33;;;;;19.97;100.00;101042.91;5030436;28;63268;-74
2023/04/28 09:44:15;;;;;;;;;0.67;0.67;;;;;20.03;100.00;101034.75;5028937;28;45902;-75
2023/04/28 09:46:41;;;;;;;;;1.00;1.00;;;;;20.12;100.00;101041.66;5025133;28;45562;-76
2023/04/28 09:49:08;;;;;;;;;0.00;0.00;;;;;20.13;100.00;101033.59;5004643;28;48416;-76
2023/04/28 09:51:34;;;;;;;;;0.33;0.33;;;;;20.13;100.00;101030.00;5014130;28;46158;-76
2023/04/28 09:54:01;;;;;;;;;1.00;1.00;;;;;20.04;100.00;101033.81;5030659;28;45683;-75
2023/04/28 09:56:28;;;;;;;;;0.00;0.00;;;;;20.01;100.00;101035.69;5032221;28;46399;-76
2023/04/28 09:58:57;;;;;;;;;0.00;0.00;;;;;20.00;100.00;101047.34;5024144;28;46494;-74
2023/04/28 10:01:23;;;;;;;;;0.00;0.00;;;;;19.98;100.00;101049.19;5015014;28;45463;-77
2023/04/28 10:03:49;;;;;;;;;2.00;0.00;;;;;19.97;100.00;101044.72;5033115;28;46847;-76
2023/04/28 10:06:14;;;;;;;;;0.00;0.00;;;;;19.97;100.00;101044.72;5005729;28;51964;-77
2023/04/28 10:08:40;;;;;;;;;1.00;1.00;;;;;19.94;100.00;101045.69;5031376;28;45695;-75
2023/04/28 10:11:05;;;;;;;;;0.00;0.00;;;;;19.92;100.00;101049.31;5010336;28;45500;-75
2023/04/28 10:13:31;;;;;;;;;0.00;0.00;;;;;19.87;100.00;101047.63;5030847;28;62793;-76
2023/04/28 10:15:57;;;;;;;;;0.00;0.00;;;;;19.84;100.00;101054.84;5027015;28;45384;-74
2023/04/28 10:18:23;;;;;;;;;0.67;0.67;;;;;19.84;100.00;101054.84;5034911;28;45759;-75
2023/04/28 10:20:53;;;;;;;;;1.00;1.00;;;;;19.83;100.00;101061.16;5009907;28;46337;-75
2023/04/28 10:23:48;;;;;;;;;0.67;0.67;;;;;19.84;100.00;101053.06;5012914;28;45635;-76
2023/04/28 10:26:18;;;;;;;;;0.00;0.00;;;;;19.97;100.00;101056.31;5035016;28;45581;-76
2023/04/28 10:28:46;;;;;;;;;0.00;0.00;;;;;20.11;100.00;101047.94;4995718;28;47680;-76
2023/04/28 10:31:13;;;;;;;;;2.00;0.00;;;;;20.29;100.00;101058.19;5042022;28;45554;-76
2023/04/28 10:33:39;;;;;;;;;6.00;4.33;;;;;20.34;100.00;101055.41;5030256;28;45436;-76
2023/04/28 10:36:06;;;;;;;;;0.00;0.00;;;;;20.31;100.00;101053.69;5013111;28;45554;-76
2023/04/28 10:38:32;;;;;;;;;0.00;0.00;;;;;20.28;100.00;101059.13;5009093;28;48174;-75
2023/04/28 10:41:02;;;;;;;;;1.67;0.00;;;;;20.25;100.00;101058.34;5016705;28;45656;-76
2023/04/28 10:43:38;;;;;;;;;0.67;0.67;;;;;20.29;100.00;101058.19;5034403;28;45524;-75
2023/04/28 10:46:07;;;;;;;;;0.00;0.00;;;;;20.33;100.00;101059.00;5045912;28;45200;-76
2023/04/28 10:48:33;;;;;;;;;0.00;0.00;;;;;20.28;100.00;101061.81;5041025;28;46542;-76
2023/04/28 10:51:08;;;;;;;;;0.00;0.00;;;;;20.18;100.00;101064.75;5043405;28;45548;-75
2023/04/28 10:53:43;;;;;;;;;1.67;1.00;;;;;20.11;100.00;101074.75;5045405;28;45482;-75
2023/04/28 10:56:08;;;;;;;;;0.00;0.00;;;;;20.12;100.00;101065.78;5025161;28;45506;-75
2023/04/28 10:58:36;;;;;;;;;2.00;0.00;;;;;20.23;100.00;101050.31;5032532;28;46484;-75
2023/04/28 11:01:20;;;;;;;;;0.33;0.33;;;;;20.53;100.00;101059.41;4995480;28;45495;-75
2023/04/28 11:03:45;;;;;;;;;0.00;0.00;;;;;20.73;100.00;101058.00;5030383;28;45555;-76
2023/04/28 11:06:31;;;;;;;;;1.00;1.00;;;;;20.82;100.00;101041.63;5028041;28;45543;-76
2023/04/28 11:09:01;;;;;;;;;0.00;0.00;;;;;20.86;100.00;101041.50;5032372;27;46571;-75
2023/04/28 11:11:33;;;;;;;;;0.67;0.00;;;;;20.90;100.00;101050.34;5011770;28;45475;-75